Time;durP1;ratioP1;P1;durP2;ratioP2;P2;SDS_P1;SDS_P2;PMS_P1;PMS_P2;Temp;Humidity;BMP_temperature;BMP_pressure;BME280_temperature;BME280_humidity;BME280_pressure;Samples;Min_cycle;Max_cycle;Signal;HPM_P1;HPM_P2
2023/06/07 00:01:15;;;;;;;10.68;6.07;;;17.50;81.30;;;;;;4980131;28;20105;-83
2023/06/07 00:03:44;;;;;;;8.82;5.28;;;17.40;81.20;;;;;;4975443;28;20046;-83
2023/06/07 00:06:10;;;;;;;10.00;6.45;;;17.50;81.30;;;;;;4996286;28;20417;-82
2023/06/07 00:08:36;;;;;;;10.27;5.82;;;17.40;81.20;;;;;;4976451;28;20061;-83
2023/06/07 00:11:02;;;;;;;9.52;5.50;;;17.40;81.20;;;;;;4977711;28;20114;-83
2023/06/07 00:13:28;;;;;;;9.15;5.13;;;17.40;81.20;;;;;;4978474;28;20030;-82
2023/06/07 00:15:53;;;;;;;10.25;5.15;;;17.50;81.30;;;;;;4995179;28;20263;-83
2023/06/07 00:18:19;;;;;;;10.30;4.90;;;17.40;81.10;;;;;;4977527;28;20023;-83
2023/06/07 00:20:46;;;;;;;9.82;5.20;;;17.50;81.20;;;;;;4995091;28;20054;-83
2023/06/07 00:23:13;;;;;;;10.88;5.72;;;17.40;81.10;;;;;;4977073;28;20022;-83
2023/06/07 00:25:38;;;;;;;9.82;5.55;;;17.50;81.20;;;;;;4977579;28;20122;-83
2023/06/07 00:28:04;;;;;;;10.05;5.57;;;17.40;81.10;;;;;;4976976;28;20058;-84
2023/06/07 00:30:29;;;;;;;10.38;5.25;;;17.40;81.10;;;;;;4977086;28;20057;-83
2023/06/07 00:32:55;;;;;;;9.48;5.03;;;17.40;81.10;;;;;;4970263;28;20034;-83
2023/06/07 00:35:20;;;;;;;8.93;5.10;;;17.40;81.10;;;;;;4977185;28;20121;-84
2023/06/07 00:37:46;;;;;;;9.10;5.20;;;17.50;81.10;;;;;;4984809;28;20034;-83
2023/06/07 00:40:12;;;;;;;10.15;5.97;;;17.40;81.10;;;;;;4992042;28;20242;-83
2023/06/07 00:42:37;;;;;;;10.13;6.32;;;17.40;81.10;;;;;;4975193;28;20037;-83
2023/06/07 00:45:03;;;;;;;10.35;5.60;;;17.40;81.10;;;;;;4960970;28;20030;-83
2023/06/07 00:47:29;;;;;;;9.32;5.30;;;17.40;81.00;;;;;;4974358;28;20042;-83
2023/06/07 00:49:55;;;;;;;10.05;5.75;;;17.50;81.00;;;;;;4974442;28;20117;-83
2023/06/07 00:52:21;;;;;;;9.75;5.65;;;17.50;81.00;;;;;;4981730;28;20019;-83
2023/06/07 00:54:48;;;;;;;9.18;5.80;;;17.50;80.90;;;;;;4976083;28;20482;-83
2023/06/07 00:57:16;;;;;;;9.43;5.63;;;17.50;80.80;;;;;;4975973;28;20484;-84
2023/06/07 00:59:42;;;;;;;11.30;6.25;;;17.50;80.70;;;;;;4993568;28;20027;-82
2023/06/07 01:02:08;;;;;;;8.80;5.15;;;17.50;80.80;;;;;;4993853;28;20030;-83
2023/06/07 01:04:39;;;;;;;9.23;5.95;;;17.60;80.70;;;;;;4997549;28;20407;-83
2023/06/07 01:07:07;;;;;;;10.95;6.22;;;17.50;80.70;;;;;;4996072;28;20497;-83
2023/06/07 01:09:34;;;;;;;9.55;6.03;;;17.60;80.80;;;;;;4997294;28;20090;-83
2023/06/07 01:12:01;;;;;;;8.82;5.22;;;17.50;80.70;;;;;;4979245;28;20113;-82
2023/06/07 01:14:27;;;;;;;11.32;6.10;;;17.60;80.70;;;;;;4978492;28;20018;-83
2023/06/07 01:16:53;;;;;;;9.15;5.15;;;17.50;80.70;;;;;;4992409;28;20022;-83
2023/06/07 01:19:25;;;;;;;10.52;6.20;;;17.50;80.70;;;;;;4992656;28;20453;-83
2023/06/07 01:21:54;;;;;;;9.25;5.20;;;17.50;80.80;;;;;;4963345;28;20029;-83
2023/06/07 01:24:20;;;;;;;10.38;7.00;;;17.50;80.90;;;;;;4995509;28;20026;-83
2023/06/07 01:26:47;;;;;;;12.75;7.63;;;17.40;81.00;;;;;;4995321;28;20068;-83
2023/06/07 01:29:15;;;;;;;10.48;5.55;;;17.40;81.00;;;;;;4979319;28;20038;-83
2023/06/07 01:31:42;;;;;;;9.80;6.43;;;17.50;81.10;;;;;;4974778;28;20034;-82
2023/06/07 01:34:08;;;;;;;8.35;5.18;;;17.40;81.10;;;;;;4963452;28;20029;-83
2023/06/07 01:36:34;;;;;;;10.35;6.50;;;17.40;81.10;;;;;;4980026;28;20026;-83
2023/06/07 01:39:01;;;;;;;9.38;5.35;;;17.40;81.10;;;;;;4996636;28;20046;-83
2023/06/07 01:41:29;;;;;;;9.82;5.38;;;17.40;81.10;;;;;;4966718;28;20077;-83
2023/06/07 01:43:56;;;;;;;9.30;5.43;;;17.40;81.10;;;;;;4975670;28;20125;-83
2023/06/07 01:46:22;;;;;;;9.00;5.85;;;17.40;81.00;;;;;;4975769;28;20035;-83
2023/06/07 01:48:47;;;;;;;10.73;5.30;;;17.40;81.00;;;;;;4976742;28;20362;-83
2023/06/07 01:51:13;;;;;;;10.00;5.20;;;17.40;81.00;;;;;;4975472;28;20034;-82
2023/06/07 01:53:39;;;;;;;11.20;5.95;;;17.40;81.00;;;;;;4966079;28;20027;-83
2023/06/07 01:56:23;;;;;;;8.95;5.55;;;17.40;81.00;;;;;;4995077;28;20050;-82
2023/06/07 01:59:14;;;;;;;10.25;5.28;;;17.30;80.80;;;;;;4996566;28;20034;-82
2023/06/07 02:01:55;;;;;;;9.43;5.45;;;17.40;80.90;;;;;;4978599;28;20490;-82
2023/06/07 02:04:24;;;;;;;10.02;5.95;;;17.40;80.90;;;;;;4966168;28;20030;-83
2023/06/07 02:06:54;;;;;;;9.07;5.07;;;17.30;80.90;;;;;;4975004;28;20039;-83
2023/06/07 02:09:23;;;;;;;10.00;5.10;;;17.40;80.90;;;;;;4976327;28;20041;-83
2023/06/07 02:11:49;;;;;;;9.15;5.07;;;17.40;80.80;;;;;;4986017;28;20035;-85
2023/06/07 02:14:16;;;;;;;10.15;6.57;;;17.30;80.90;;;;;;4967189;28;20027;-84
2023/06/07 02:16:41;;;;;;;10.35;5.65;;;17.30;80.80;;;;;;4981655;28;20018;-83
2023/06/07 02:19:09;;;;;;;10.23;5.38;;;17.40;80.80;;;;;;4981553;28;20049;-84
2023/06/07 02:21:36;;;;;;;10.40;6.05;;;17.30;80.70;;;;;;4981226;28;20030;-84
2023/06/07 02:24:08;;;;;;;10.40;6.75;;;17.40;80.90;;;;;;4983355;28;20030;-83
2023/06/07 02:26:34;;;;;;;11.23;7.13;;;17.40;80.80;;;;;;4961173;28;20077;-83
2023/06/07 02:29:00;;;;;;;10.30;6.35;;;17.40;80.80;;;;;;4961367;28;20489;-84
2023/06/07 02:31:25;;;;;;;11.10;6.70;;;17.40;80.70;;;;;;4994691;28;20097;-84
2023/06/07 02:33:51;;;;;;;9.43;5.72;;;17.40;80.60;;;;;;4997863;28;20034;-83
2023/06/07 02:36:21;;;;;;;9.85;6.22;;;17.40;80.60;;;;;;4997336;28;20477;-84
2023/06/07 02:38:47;;;;;;;11.60;7.68;;;17.50;80.50;;;;;;4997221;28;20105;-82
2023/06/07 02:41:13;;;;;;;11.48;6.88;;;17.50;80.50;;;;;;4979637;28;20050;-82
2023/06/07 02:43:39;;;;;;;12.25;6.38;;;17.50;80.40;;;;;;4979395;28;20030;-83
2023/06/07 02:46:05;;;;;;;8.73;5.70;;;17.50;80.40;;;;;;4973701;28;20408;-83
2023/06/07 02:48:30;;;;;;;10.60;6.20;;;17.50;80.30;;;;;;4992763;28;20027;-83
2023/06/07 02:50:55;;;;;;;9.23;5.97;;;17.50;80.30;;;;;;4992081;28;20038;-83
2023/06/07 02:53:22;;;;;;;10.38;6.10;;;17.50;80.30;;;;;;4987577;28;20447;-83
2023/06/07 02:55:47;;;;;;;11.23;6.43;;;17.40;80.30;;;;;;4978834;28;20026;-84
2023/06/07 02:58:14;;;;;;;12.23;7.28;;;17.50;80.30;;;;;;4979076;28;20108;-83
2023/06/07 03:00:39;;;;;;;10.85;7.75;;;17.40;80.30;;;;;;4978665;28;20065;-83
2023/06/07 03:03:05;;;;;;;10.50;6.93;;;17.40;80.50;;;;;;4991103;28;20030;-84
2023/06/07 03:05:31;;;;;;;11.15;6.90;;;17.40;80.60;;;;;;4985130;28;20453;-83
2023/06/07 03:07:59;;;;;;;10.98;7.10;;;17.40;80.60;;;;;;4967780;28;20038;-84
2023/06/07 03:10:25;;;;;;;10.90;7.00;;;17.40;80.70;;;;;;4980420;28;20052;-84
2023/06/07 03:12:51;;;;;;;11.85;8.20;;;17.30;80.60;;;;;;4998025;28;20109;-83
2023/06/07 03:15:16;;;;;;;11.02;7.53;;;17.30;80.60;;;;;;4980110;28;20033;-84
2023/06/07 03:17:43;;;;;;;10.85;7.45;;;17.30;80.60;;;;;;4979937;28;20025;-84
2023/06/07 03:20:09;;;;;;;10.68;7.20;;;17.40;80.70;;;;;;4980838;28;20048;-83
2023/06/07 03:22:38;;;;;;;12.82;8.23;;;17.40;80.70;;;;;;4974916;28;20023;-85
2023/06/07 03:25:04;;;;;;;13.20;8.52;;;17.40;80.70;;;;;;4978868;28;20029;-83
2023/06/07 03:27:32;;;;;;;10.27;6.28;;;17.30;80.60;;;;;;4997064;28;20041;-83
2023/06/07 03:29:58;;;;;;;10.13;6.45;;;17.30;80.60;;;;;;4979511;28;20092;-82
2023/06/07 03:32:24;;;;;;;10.07;6.55;;;17.30;80.60;;;;;;4979471;28;20064;-86
2023/06/07 03:34:49;;;;;;;11.30;6.90;;;17.30;80.60;;;;;;4981850;28;20042;-83
2023/06/07 03:37:15;;;;;;;11.05;6.80;;;17.30;80.60;;;;;;4995830;28;20080;-87
2023/06/07 03:39:40;;;;;;;10.30;6.40;;;17.30;80.60;;;;;;4972867;28;20118;-87
2023/06/07 03:42:06;;;;;;;10.88;6.72;;;17.30;80.60;;;;;;4975044;28;20072;-87
2023/06/07 04:12:38;;;;;;;9.70;6.35;;;17.30;80.40;;;;;;5031461;28;20671;-83
2023/06/07 04:15:06;;;;;;;10.88;6.75;;;17.70;80.60;;;;;;5013679;28;20040;-82
2023/06/07 04:17:44;;;;;;;12.63;6.97;;;17.50;80.40;;;;;;5013469;28;20025;-84
2023/06/07 04:31:29;;;;;;;12.25;7.47;;;17.30;80.00;;;;;;4971738;28;20070;-84
2023/06/07 04:34:35;;;;;;;;;;;;;;;;;;;;;
2023/06/07 04:40:49;;;;;;;14.23;7.35;;;17.70;80.40;;;;;;4973341;28;20078;-82
2023/06/07 04:43:18;;;;;;;15.93;7.50;;;17.30;80.80;;;;;;4991652;28;20507;-81
2023/06/07 04:49:33;;;;;;;12.30;7.85;;;17.30;80.50;;;;;;4943768;28;20038;-81
2023/06/07 04:52:01;;;;;;;17.95;9.25;;;17.60;80.70;;;;;;4992238;28;20129;-81
2023/06/07 04:54:28;;;;;;;17.95;8.27;;;17.40;80.70;;;;;;4990298;28;20034;-81
2023/06/07 04:57:16;;;;;;;13.85;7.20;;;17.70;80.80;;;;;;4993560;28;20129;-82
2023/06/07 05:00:30;;;;;;;13.77;7.15;;;17.30;80.30;;;;;;4991954;28;20026;-81
2023/06/07 05:03:08;;;;;;;13.35;7.20;;;17.20;80.40;;;;;;4992323;28;20026;-83
2023/06/07 05:05:40;;;;;;;14.75;7.05;;;17.30;80.30;;;;;;4993603;28;20026;-82
2023/06/07 05:08:06;;;;;;;13.35;7.60;;;17.10;80.20;;;;;;4990227;28;20031;-80
2023/06/07 05:10:31;;;;;;;14.50;7.97;;;18.50;80.90;;;;;;4988769;28;20027;-79
2023/06/07 05:12:57;;;;;;;16.58;8.65;;;17.20;80.30;;;;;;4993196;28;20030;-77
2023/06/07 05:15:23;;;;;;;13.18;7.07;;;17.20;80.20;;;;;;4991432;28;20311;-79
2023/06/07 05:17:49;;;;;;;14.63;7.93;;;17.20;80.20;;;;;;4988540;28;20398;-80
2023/06/07 05:20:15;;;;;;;12.63;7.20;;;17.30;80.30;;;;;;4988784;28;20034;-80
2023/06/07 05:22:42;;;;;;;16.17;7.85;;;17.20;80.20;;;;;;4990115;28;20037;-80
2023/06/07 05:25:09;;;;;;;16.88;9.30;;;17.20;80.20;;;;;;5008061;28;20033;-78
2023/06/07 05:27:36;;;;;;;11.13;7.03;;;17.20;80.30;;;;;;4992650;28;20200;-80
2023/06/07 05:30:04;;;;;;;11.60;7.35;;;17.20;80.30;;;;;;4992274;28;20518;-80
2023/06/07 05:32:30;;;;;;;12.65;7.43;;;17.20;80.20;;;;;;5007870;28;20149;-80
2023/06/07 05:34:57;;;;;;;12.60;6.50;;;17.20;80.20;;;;;;4991355;28;20026;-80
2023/06/07 05:37:23;;;;;;;13.43;7.53;;;17.20;80.20;;;;;;4991353;28;20026;-80
2023/06/07 05:39:49;;;;;;;13.82;7.55;;;17.20;80.30;;;;;;4989019;28;20050;-80
2023/06/07 05:42:15;;;;;;;11.93;7.07;;;17.30;80.30;;;;;;4990611;28;20066;-79
2023/06/07 05:44:41;;;;;;;15.88;7.40;;;17.20;80.20;;;;;;4977414;28;20073;-80
2023/06/07 05:47:07;;;;;;;16.35;8.38;;;17.30;80.20;;;;;;4991688;28;20026;-80
2023/06/07 05:49:32;;;;;;;15.52;8.95;;;17.30;80.10;;;;;;5003391;28;20030;-80
2023/06/07 05:51:58;;;;;;;12.77;7.80;;;17.30;80.10;;;;;;5003458;28;20057;-80
2023/06/07 05:54:23;;;;;;;13.95;8.00;;;17.30;80.00;;;;;;5001218;28;20389;-80
2023/06/07 05:56:49;;;;;;;12.88;8.25;;;17.30;79.90;;;;;;5006897;28;20150;-80
2023/06/07 05:59:14;;;;;;;13.10;8.07;;;17.30;79.90;;;;;;5003562;28;20030;-81
2023/06/07 06:01:40;;;;;;;16.45;8.63;;;17.40;79.90;;;;;;5013439;28;20019;-81
2023/06/07 06:04:06;;;;;;;12.60;8.27;;;17.40;79.90;;;;;;4997539;28;20043;-81
2023/06/07 06:06:31;;;;;;;13.93;8.68;;;17.40;79.90;;;;;;4989097;28;20030;-80
2023/06/07 06:08:57;;;;;;;13.65;8.00;;;17.40;79.90;;;;;;5001761;28;20038;-81
2023/06/07 06:11:22;;;;;;;14.75;7.95;;;17.40;79.80;;;;;;5016983;28;20030;-81
2023/06/07 06:13:48;;;;;;;12.00;7.63;;;17.40;79.80;;;;;;4986625;28;20023;-80
2023/06/07 06:16:14;;;;;;;14.30;8.05;;;17.30;79.80;;;;;;4982555;28;20097;-77
2023/06/07 06:18:41;;;;;;;13.25;7.18;;;17.30;79.80;;;;;;4999205;28;20129;-81
2023/06/07 06:21:07;;;;;;;13.80;7.25;;;17.40;79.90;;;;;;5016048;28;20400;-80
2023/06/07 06:23:32;;;;;;;14.77;7.72;;;17.30;79.90;;;;;;5000789;28;20114;-80
2023/06/07 06:25:58;;;;;;;14.38;8.02;;;17.30;80.10;;;;;;5015692;28;20048;-81
2023/06/07 06:28:24;;;;;;;13.35;7.50;;;17.30;80.20;;;;;;4998941;28;20034;-80
2023/06/07 06:30:50;;;;;;;14.93;7.88;;;17.30;80.20;;;;;;4999543;28;20034;-80
2023/06/07 06:33:16;;;;;;;12.70;7.65;;;17.30;80.20;;;;;;4998730;28;20040;-80
2023/06/07 06:35:41;;;;;;;14.25;7.32;;;17.30;80.30;;;;;;4996791;28;20027;-80
2023/06/07 06:38:07;;;;;;;16.25;8.35;;;17.30;80.80;;;;;;5014442;28;20396;-80
2023/06/07 06:40:32;;;;;;;13.00;7.43;;;17.20;80.30;;;;;;5001759;28;20018;-80
2023/06/07 06:42:59;;;;;;;14.40;7.80;;;17.20;80.30;;;;;;4993638;28;20039;-81
2023/06/07 06:45:25;;;;;;;12.85;7.68;;;17.20;80.40;;;;;;5014710;28;20365;-80
2023/06/07 06:47:51;;;;;;;14.05;7.68;;;17.20;80.40;;;;;;5001865;28;20073;-81
2023/06/07 06:50:17;;;;;;;12.07;8.15;;;17.30;80.60;;;;;;5001768;28;20022;-80
2023/06/07 06:52:42;;;;;;;16.92;8.40;;;17.30;80.60;;;;;;4998257;28;20034;-80
2023/06/07 06:55:08;;;;;;;15.43;7.88;;;17.30;80.70;;;;;;4985643;28;20023;-81
2023/06/07 06:57:35;;;;;;;14.98;8.65;;;17.20;80.60;;;;;;5001742;28;20105;-80
2023/06/07 07:00:01;;;;;;;13.43;7.65;;;17.30;80.70;;;;;;4999852;28;20027;-81
2023/06/07 07:02:26;;;;;;;16.65;7.85;;;17.20;80.70;;;;;;4999973;28;20073;-80
2023/06/07 07:04:53;;;;;;;14.25;8.10;;;17.20;80.70;;;;;;5001412;28;20508;-80
2023/06/07 07:07:18;;;;;;;14.63;8.10;;;17.20;80.80;;;;;;4994789;28;20111;-80
2023/06/07 07:09:44;;;;;;;14.27;7.93;;;17.30;80.90;;;;;;5003649;28;20030;-80
2023/06/07 07:12:10;;;;;;;13.13;7.78;;;17.20;80.90;;;;;;5006605;28;20513;-80
2023/06/07 07:14:36;;;;;;;12.88;7.57;;;17.20;80.90;;;;;;5009102;28;20018;-80
2023/06/07 07:17:02;;;;;;;13.25;7.82;;;17.20;81.00;;;;;;4998273;28;20041;-80
2023/06/07 07:19:27;;;;;;;13.88;8.10;;;17.30;81.10;;;;;;5000193;28;20033;-80
2023/06/07 07:21:53;;;;;;;13.30;8.00;;;17.20;81.10;;;;;;4996158;28;20027;-80
2023/06/07 07:24:18;;;;;;;13.38;7.95;;;17.20;81.10;;;;;;4994633;28;20066;-80
2023/06/07 07:26:44;;;;;;;14.52;7.80;;;17.20;81.20;;;;;;4979892;28;20027;-80
2023/06/07 07:29:10;;;;;;;13.85;7.70;;;17.30;81.20;;;;;;4979963;28;20501;-80
2023/06/07 07:31:35;;;;;;;12.75;7.90;;;17.30;81.20;;;;;;4978952;28;20053;-80
2023/06/07 07:34:04;;;;;;;14.80;7.43;;;17.30;81.10;;;;;;4998923;28;20034;-81
2023/06/07 07:36:33;;;;;;;12.35;7.07;;;17.30;81.10;;;;;;4996904;28;20033;-80
2023/06/07 07:38:59;;;;;;;13.00;7.22;;;17.30;81.00;;;;;;5008929;28;20019;-80
2023/06/07 07:41:25;;;;;;;11.57;6.82;;;17.30;81.00;;;;;;4996974;28;20084;-80
2023/06/07 07:43:51;;;;;;;12.23;7.13;;;17.30;81.00;;;;;;4993736;28;20029;-80
2023/06/07 07:46:17;;;;;;;16.23;7.90;;;17.40;81.10;;;;;;4992822;28;20050;-80
2023/06/07 07:48:43;;;;;;;13.93;7.45;;;17.40;81.20;;;;;;4996511;28;20041;-80
2023/06/07 07:51:09;;;;;;;13.43;7.30;;;17.40;81.20;;;;;;4997848;28;20038;-80
2023/06/07 07:53:34;;;;;;;13.38;7.00;;;17.40;81.30;;;;;;5005936;28;20023;-80
2023/06/07 07:56:00;;;;;;;11.70;7.13;;;17.40;81.30;;;;;;4995440;28;20378;-80
2023/06/07 07:58:25;;;;;;;12.00;7.05;;;17.30;81.30;;;;;;4996319;28;20112;-81
2023/06/07 08:00:52;;;;;;;13.30;7.55;;;17.30;81.40;;;;;;5011435;28;20404;-80
2023/06/07 08:03:18;;;;;;;12.63;6.88;;;17.30;81.40;;;;;;4991326;28;20033;-80
2023/06/07 08:05:43;;;;;;;13.77;7.47;;;17.30;81.50;;;;;;4994844;28;20042;-80
2023/06/07 08:08:09;;;;;;;12.90;6.95;;;17.30;81.70;;;;;;4991250;28;20031;-80
2023/06/07 08:10:34;;;;;;;13.35;7.38;;;17.30;81.80;;;;;;4976915;28;20489;-80
2023/06/07 08:13:00;;;;;;;12.68;7.28;;;17.30;81.80;;;;;;4996465;28;20019;-81
2023/06/07 08:15:25;;;;;;;12.63;6.97;;;17.30;81.90;;;;;;4980890;28;20084;-80
2023/06/07 08:17:51;;;;;;;11.85;6.95;;;17.30;81.90;;;;;;4993960;28;20049;-80
2023/06/07 08:20:16;;;;;;;14.43;7.68;;;17.30;81.90;;;;;;5009875;28;20061;-80
2023/06/07 08:22:42;;;;;;;10.90;7.00;;;17.30;81.90;;;;;;4992549;28;20118;-80
2023/06/07 08:25:09;;;;;;;12.68;7.28;;;17.30;82.00;;;;;;4993043;28;20033;-79
2023/06/07 08:27:35;;;;;;;12.48;7.43;;;17.30;82.00;;;;;;4993456;28;20031;-80
2023/06/07 08:30:01;;;;;;;13.32;7.35;;;17.30;82.10;;;;;;4993342;28;20034;-80
2023/06/07 08:32:27;;;;;;;13.18;7.07;;;17.30;82.00;;;;;;4995125;28;20031;-79
2023/06/07 08:34:52;;;;;;;13.40;7.65;;;17.30;82.00;;;;;;5008532;28;20034;-78
2023/06/07 08:37:18;;;;;;;13.27;8.02;;;17.30;82.00;;;;;;4992749;28;20040;-79
2023/06/07 08:39:43;;;;;;;14.02;7.97;;;17.40;81.90;;;;;;4992846;28;20473;-80
2023/06/07 08:42:09;;;;;;;14.02;8.63;;;17.40;81.80;;;;;;5009257;28;20029;-80
2023/06/07 08:44:35;;;;;;;12.65;8.50;;;17.40;81.70;;;;;;5007847;28;20158;-80
2023/06/07 08:47:02;;;;;;;12.55;7.78;;;17.40;81.70;;;;;;5008051;28;20026;-80
2023/06/07 08:49:33;;;;;;;14.10;7.95;;;17.40;81.90;;;;;;4992539;28;20023;-80
2023/06/07 08:52:02;;;;;;;12.18;7.32;;;17.40;81.80;;;;;;5008545;28;20469;-80
2023/06/07 08:54:29;;;;;;;14.10;7.60;;;17.40;82.00;;;;;;4993667;28;20092;-80
2023/06/07 08:56:55;;;;;;;13.73;7.72;;;17.40;82.00;;;;;;5008231;28;20488;-79
2023/06/07 08:59:24;;;;;;;16.60;8.07;;;17.40;82.00;;;;;;4992326;28;20117;-79
2023/06/07 09:01:52;;;;;;;12.48;7.45;;;17.40;82.00;;;;;;4991701;28;20026;-80
2023/06/07 09:04:18;;;;;;;14.32;8.05;;;17.40;82.10;;;;;;4992726;28;20093;-79
2023/06/07 09:06:43;;;;;;;14.38;8.50;;;17.40;82.10;;;;;;5007935;28;20485;-80
2023/06/07 09:09:09;;;;;;;13.13;7.57;;;17.40;82.10;;;;;;4985067;28;20026;-79
2023/06/07 09:11:35;;;;;;;12.85;7.75;;;17.40;82.40;;;;;;4994447;28;20062;-83
2023/06/07 09:14:01;;;;;;;14.52;8.15;;;17.50;82.50;;;;;;4999034;28;20023;-80
2023/06/07 09:16:26;;;;;;;13.60;7.88;;;17.50;82.40;;;;;;5016324;28;20054;-82
2023/06/07 09:18:55;;;;;;;14.00;7.90;;;17.50;82.30;;;;;;4992858;28;20034;-81
2023/06/07 09:21:23;;;;;;;12.48;7.85;;;17.50;82.30;;;;;;5007945;28;20034;-81
2023/06/07 09:23:51;;;;;;;14.25;7.75;;;17.60;82.50;;;;;;4989819;28;20117;-81
2023/06/07 09:26:19;;;;;;;15.80;8.27;;;17.60;82.30;;;;;;4997308;28;20027;-81
2023/06/07 09:28:46;;;;;;;13.77;8.43;;;17.60;82.40;;;;;;5004454;28;20037;-82
2023/06/07 09:31:12;;;;;;;14.23;8.02;;;17.60;82.30;;;;;;5004798;28;20551;-82
2023/06/07 09:33:38;;;;;;;14.60;8.75;;;17.60;82.40;;;;;;4993504;28;20038;-81
2023/06/07 09:36:08;;;;;;;12.95;8.05;;;17.60;82.30;;;;;;5005036;28;20057;-81
2023/06/07 09:38:37;;;;;;;13.55;8.27;;;17.60;82.30;;;;;;5003971;28;20045;-81
2023/06/07 09:41:04;;;;;;;15.45;8.18;;;17.60;82.30;;;;;;5003002;28;20098;-81
2023/06/07 09:43:50;;;;;;;14.93;8.05;;;17.60;82.50;;;;;;5001555;28;20037;-81
2023/06/07 09:46:18;;;;;;;15.27;7.75;;;17.60;82.70;;;;;;5001283;28;20026;-81
2023/06/07 09:48:51;;;;;;;13.60;7.95;;;17.50;83.20;;;;;;5001106;28;20031;-81
2023/06/07 09:51:18;;;;;;;14.98;7.70;;;17.60;83.40;;;;;;5002712;28;20034;-81
2023/06/07 09:54:00;;;;;;;11.90;7.40;;;17.50;83.40;;;;;;5002041;28;20050;-81
2023/06/07 09:56:25;;;;;;;12.88;7.75;;;17.60;83.40;;;;;;5000624;28;20018;-81
2023/06/07 09:59:13;;;;;;;13.00;7.90;;;17.60;83.50;;;;;;5002290;28;20110;-80
2023/06/07 10:01:45;;;;;;;13.65;8.15;;;17.60;83.40;;;;;;5001523;28;20028;-81
2023/06/07 10:04:11;;;;;;;12.27;7.68;;;17.60;83.40;;;;;;5001386;28;20563;-81
2023/06/07 10:06:44;;;;;;;13.23;8.02;;;17.60;83.50;;;;;;5013563;28;20064;-81
2023/06/07 10:09:11;;;;;;;12.25;7.70;;;17.60;83.00;;;;;;4999935;28;20022;-81
2023/06/07 10:11:39;;;;;;;14.23;8.27;;;17.60;83.10;;;;;;4999109;28;20049;-81
2023/06/07 10:14:13;;;;;;;15.25;9.32;;;17.60;83.00;;;;;;4998165;28;20420;-80
2023/06/07 10:16:54;;;;;;;14.77;8.50;;;17.60;83.00;;;;;;5000160;28;20022;-80
2023/06/07 10:19:20;;;;;;;;;;;17.60;83.30;;;;;;4996064;28;20037;-80
2023/06/07 10:21:49;;;;;;;15.25;8.48;;;17.60;83.00;;;;;;5019318;28;19905;-80
2023/06/07 10:24:22;;;;;;;12.77;8.98;;;17.70;83.10;;;;;;5015271;28;20515;-80
2023/06/07 10:26:57;;;;;;;13.07;8.02;;;17.60;83.00;;;;;;5001815;28;20404;-80
2023/06/07 10:29:37;;;;;;;12.88;8.20;;;17.60;83.20;;;;;;5018573;28;20117;-80
2023/06/07 10:32:12;;;;;;;14.60;8.90;;;17.70;83.10;;;;;;5001806;28;20065;-80
2023/06/07 10:34:38;;;;;;;14.20;9.23;;;17.60;83.10;;;;;;5001969;28;20031;-80
2023/06/07 10:37:07;;;;;;;16.25;8.50;;;17.70;83.10;;;;;;5000704;28;20118;-79
2023/06/07 10:39:34;;;;;;;13.30;8.07;;;17.70;83.10;;;;;;5000053;28;20397;-80
2023/06/07 10:42:00;;;;;;;12.15;8.07;;;17.70;83.10;;;;;;5000696;28;20034;-80
2023/06/07 10:44:25;;;;;;;14.93;7.93;;;17.70;83.10;;;;;;5002105;28;20499;-80
2023/06/07 10:47:23;;;;;;;14.48;8.52;;;17.70;83.10;;;;;;5000038;28;20034;-80
2023/06/07 10:49:49;;;;;;;14.00;8.38;;;17.70;83.10;;;;;;5012267;28;20109;-80
2023/06/07 10:52:15;;;;;;;13.02;8.02;;;17.70;83.10;;;;;;4996224;28;20039;-80
2023/06/07 10:54:42;;;;;;;14.25;8.50;;;17.70;83.00;;;;;;4999849;28;20084;-80
2023/06/07 10:57:09;;;;;;;13.30;7.90;;;17.80;82.80;;;;;;4998575;28;20030;-80
2023/06/07 10:59:35;;;;;;;13.55;7.95;;;17.80;82.80;;;;;;4998990;28;20023;-80
2023/06/07 11:02:21;;;;;;;14.20;7.95;;;17.90;82.70;;;;;;4998029;28;20023;-81
2023/06/07 11:04:53;;;;;;;11.52;7.78;;;17.90;82.60;;;;;;4983972;28;20027;-80
2023/06/07 11:07:30;;;;;;;13.57;8.20;;;17.90;82.50;;;;;;4997803;28;20022;-81
2023/06/07 11:10:02;;;;;;;11.95;7.43;;;17.90;82.40;;;;;;4994785;28;20026;-80
2023/06/07 11:12:44;;;;;;;11.55;7.65;;;17.90;82.40;;;;;;5013368;23;20034;-86
2023/06/07 11:15:31;;;;;;;14.85;7.72;;;17.90;82.30;;;;;;4974422;28;20046;-87
2023/06/07 11:17:58;;;;;;;12.02;7.97;;;17.90;82.30;;;;;;4975206;28;20385;-88
2023/06/07 11:20:39;;;;;;;12.23;8.15;;;17.90;82.40;;;;;;4993151;28;20030;-87
2023/06/07 11:23:24;;;;;;;14.52;7.82;;;17.90;82.60;;;;;;4989301;28;20059;-86
2023/06/07 11:25:59;;;;;;;15.68;7.60;;;17.90;83.00;;;;;;4960461;28;20061;-86
2023/06/07 11:28:27;;;;;;;14.73;7.93;;;17.90;83.10;;;;;;4975797;28;20023;-86
2023/06/07 11:30:54;;;;;;;12.80;7.55;;;17.90;83.60;;;;;;4973783;28;20034;-87
2023/06/07 11:33:21;;;;;;;12.52;7.30;;;17.80;83.10;;;;;;4973263;28;20390;-85
2023/06/07 11:35:48;;;;;;;11.90;7.70;;;17.80;83.20;;;;;;4965712;28;20106;-85
2023/06/07 11:38:14;;;;;;;13.25;8.38;;;17.80;83.20;;;;;;4967910;28;20030;-86
2023/06/07 11:40:39;;;;;;;10.52;7.47;;;17.80;83.10;;;;;;4954486;28;20035;-86
2023/06/07 11:43:11;;;;;;;10.88;7.10;;;17.80;83.40;;;;;;4964120;28;20381;-86
2023/06/07 11:45:40;;;;;;;14.20;8.75;;;17.80;83.20;;;;;;4965594;28;20034;-86
2023/06/07 11:48:06;;;;;;;13.93;8.45;;;17.70;83.20;;;;;;4953909;29;20066;-87
2023/06/07 11:50:33;;;;;;;14.23;7.82;;;17.70;83.50;;;;;;4971155;28;20027;-87
2023/06/07 11:52:59;;;;;;;12.40;7.65;;;17.80;83.30;;;;;;4973230;28;20027;-86
2023/06/07 11:55:24;;;;;;;12.38;8.23;;;17.70;83.60;;;;;;4973588;28;20026;-86
2023/06/07 11:57:53;;;;;;;12.93;8.00;;;17.70;83.30;;;;;;4973331;28;20109;-87
2023/06/07 12:00:23;;;;;;;13.10;8.05;;;17.70;83.30;;;;;;4974645;28;20050;-86
2023/06/07 12:02:52;;;;;;;12.68;8.15;;;17.80;83.40;;;;;;4997232;28;20106;-86
2023/06/07 12:05:20;;;;;;;11.73;7.82;;;17.80;83.20;;;;;;4973492;28;20101;-86
2023/06/07 12:07:59;;;;;;;13.25;7.75;;;17.80;83.20;;;;;;4957318;28;20031;-86
2023/06/07 12:10:27;;;;;;;10.98;7.90;;;17.80;83.10;;;;;;4974207;28;20034;-87
2023/06/07 12:13:15;;;;;;;13.77;8.32;;;17.80;83.20;;;;;;4988354;28;20062;-86
2023/06/07 12:15:48;;;;;;;13.02;8.32;;;17.80;83.20;;;;;;4953830;29;20019;-86
2023/06/07 12:18:19;;;;;;;12.40;7.32;;;17.80;83.10;;;;;;4953458;29;20038;-86
2023/06/07 12:20:47;;;;;;;12.00;8.07;;;17.80;83.10;;;;;;4974074;28;20088;-87
2023/06/07 12:23:14;;;;;;;12.05;7.22;;;17.80;83.60;;;;;;4973534;28;20654;-86
2023/06/07 12:25:41;;;;;;;13.25;7.50;;;17.90;83.20;;;;;;4972828;28;20185;-87
2023/06/07 12:28:09;;;;;;;12.77;7.30;;;17.90;83.10;;;;;;4972926;28;20033;-87
2023/06/07 12:30:37;;;;;;;11.90;7.47;;;17.90;83.00;;;;;;4973053;28;20034;-86
2023/06/07 12:33:03;;;;;;;13.35;7.88;;;17.90;83.00;;;;;;4965877;28;20087;-87
2023/06/07 12:35:37;;;;;;;11.00;7.43;;;17.90;83.00;;;;;;4953679;28;20122;-86
2023/06/07 12:38:03;;;;;;;14.20;7.90;;;17.90;82.90;;;;;;4957372;28;20059;-87
2023/06/07 12:40:29;;;;;;;11.25;7.43;;;17.90;82.90;;;;;;4974219;28;20046;-88
2023/06/07 12:42:54;;;;;;;12.85;7.75;;;18.00;82.80;;;;;;4965889;28;20058;-87
2023/06/07 12:45:20;;;;;;;12.55;7.32;;;18.00;82.80;;;;;;4977204;28;20378;-87
2023/06/07 12:47:45;;;;;;;11.73;7.53;;;18.00;82.80;;;;;;4974122;28;20704;-86
2023/06/07 12:50:11;;;;;;;13.73;8.05;;;18.00;82.80;;;;;;4957338;28;20027;-88
2023/06/07 12:52:36;;;;;;;12.02;7.55;;;18.00;82.80;;;;;;4958990;28;20401;-86
2023/06/07 12:55:02;;;;;;;11.95;8.25;;;18.00;82.70;;;;;;4967251;28;20102;-87
2023/06/07 12:57:27;;;;;;;12.48;8.07;;;18.00;83.00;;;;;;4972886;28;20034;-86
2023/06/07 12:59:53;;;;;;;12.68;7.63;;;18.00;83.50;;;;;;4965921;28;20027;-88
2023/06/07 13:02:18;;;;;;;12.88;8.48;;;17.90;83.40;;;;;;4964207;28;20033;-85
2023/06/07 13:04:44;;;;;;;12.25;7.60;;;17.90;83.50;;;;;;4990747;28;20075;-87
2023/06/07 13:07:09;;;;;;;13.25;8.20;;;17.90;83.80;;;;;;4962450;28;20086;-86
2023/06/07 13:09:35;;;;;;;13.80;8.45;;;17.90;83.80;;;;;;4961479;28;20049;-86
2023/06/07 13:12:04;;;;;;;11.57;7.32;;;17.90;83.40;;;;;;4976127;28;20058;-87
2023/06/07 13:14:31;;;;;;;11.73;7.82;;;17.90;83.90;;;;;;4977591;28;20082;-86
2023/06/07 13:16:56;;;;;;;12.75;7.97;;;17.90;83.60;;;;;;4974093;28;20026;-86
2023/06/07 13:19:22;;;;;;;12.43;7.88;;;17.90;84.30;;;;;;4989421;28;20033;-86
2023/06/07 13:21:48;;;;;;;12.23;7.43;;;17.90;83.70;;;;;;4965874;28;20061;-87
2023/06/07 13:24:14;;;;;;;13.93;7.90;;;17.90;83.80;;;;;;4957523;28;20524;-86
2023/06/07 13:26:39;;;;;;;11.15;7.45;;;17.90;84.20;;;;;;4956561;29;20125;-86
2023/06/07 13:29:05;;;;;;;12.93;8.40;;;17.90;84.30;;;;;;4958138;28;20429;-86